Time;durP1;ratioP1;P1;durP2;ratioP2;P2;SDS_P1;SDS_P2;PMS_P1;PMS_P2;Temp;Humidity;BMP_temperature;BMP_pressure;BME280_temperature;BME280_humidity;BME280_pressure;Samples;Min_cycle;Max_cycle;Signal;HPM_P1;HPM_P2
2023/04/21 00:02:17;;;;;;;37.40;18.40;;;;;;;;;;6229916;23;20012;-93
2023/04/21 00:04:46;;;;;;;42.42;18.75;;;;;;;;;;6254481;23;20016;-94
2023/04/21 00:07:13;;;;;;;39.40;17.52;;;;;;;;;;6254674;22;20020;-94
2023/04/21 00:09:43;;;;;;;37.83;18.58;;;;;;;;;;6253482;23;20018;-94
2023/04/21 00:12:09;;;;;;;38.25;18.23;;;;;;;;;;6228910;23;20016;-93
2023/04/21 00:14:35;;;;;;;41.33;17.25;;;;;;;;;;6228487;23;20008;-94
2023/04/21 00:17:01;;;;;;;38.92;17.83;;;;;;;;;;6228894;23;20016;-93
2023/04/21 00:19:28;;;;;;;38.35;18.27;;;;;;;;;;6222759;23;20011;-94
2023/04/21 00:21:57;;;;;;;43.53;16.75;;;;;;;;;;6221715;23;20005;-94
2023/04/21 00:24:24;;;;;;;43.45;18.75;;;;;;;;;;6224885;23;20058;-94
2023/04/21 00:26:57;;;;;;;37.28;16.27;;;;;;;;;;6226212;23;20016;-94
2023/04/21 00:29:24;;;;;;;39.35;17.77;;;;;;;;;;6221642;23;20028;-94
2023/04/21 00:31:53;;;;;;;37.58;16.88;;;;;;;;;;6222298;23;20016;-94
2023/04/21 00:34:19;;;;;;;39.60;16.77;;;;;;;;;;6224808;23;20012;-94
2023/04/21 00:36:45;;;;;;;46.63;17.58;;;;;;;;;;6226212;23;20016;-94
2023/04/21 00:39:14;;;;;;;49.47;18.30;;;;;;;;;;6228206;23;20086;-94
2023/04/21 00:41:41;;;;;;;41.35;17.15;;;;;;;;;;6225777;23;20016;-94
2023/04/21 00:44:08;;;;;;;38.78;18.15;;;;;;;;;;6223552;23;20012;-94
2023/04/21 00:46:34;;;;;;;47.47;16.90;;;;;;;;;;6224080;23;20023;-94
2023/04/21 00:49:21;;;;;;;48.50;18.20;;;;;;;;;;6225514;23;20361;-94
2023/04/21 00:51:48;;;;;;;41.80;16.73;;;;;;;;;;6243373;23;20035;-94
2023/04/21 00:54:17;;;;;;;38.47;16.75;;;;;;;;;;6227626;23;20015;-93
2023/04/21 00:56:43;;;;;;;40.38;18.65;;;;;;;;;;6224824;23;20020;-94
2023/04/21 00:59:28;;;;;;;44.67;17.90;;;;;;;;;;6252708;23;20016;-93
2023/04/21 01:02:04;;;;;;;35.85;15.70;;;;;;;;;;6253479;23;20031;-92
2023/04/21 01:04:37;;;;;;;43.83;16.80;;;;;;;;;;6254126;23;20038;-94
2023/04/21 01:07:04;;;;;;;40.80;17.67;;;;;;;;;;6254450;22;20019;-94
2023/04/21 01:09:32;;;;;;;38.83;17.60;;;;;;;;;;6229510;23;20106;-95
2023/04/21 01:12:02;;;;;;;38.92;17.13;;;;;;;;;;6228417;23;20030;-94
2023/04/21 01:14:28;;;;;;;45.78;18.40;;;;;;;;;;6253386;23;20355;-94
2023/04/21 01:16:54;;;;;;;38.20;17.05;;;;;;;;;;6251822;23;20015;-93
2023/04/21 01:19:31;;;;;;;46.67;19.02;;;;;;;;;;6227727;23;20071;-94
2023/04/21 01:21:59;;;;;;;38.17;17.17;;;;;;;;;;6232267;23;20011;-96
2023/04/21 01:24:50;;;;;;;42.08;18.02;;;;;;;;;;6252663;23;20446;-95
2023/04/21 01:27:27;;;;;;;52.42;17.08;;;;;;;;;;6228180;23;20011;-94
2023/04/21 01:29:53;;;;;;;38.78;16.65;;;;;;;;;;6227410;23;20008;-94
2023/04/21 01:32:24;;;;;;;35.22;16.50;;;;;;;;;;6227780;23;20011;-93
2023/04/21 01:34:50;;;;;;;38.95;17.67;;;;;;;;;;6228519;23;20042;-94
2023/04/21 01:37:24;;;;;;;39.38;16.67;;;;;;;;;;6228732;23;20040;-94
2023/04/21 01:39:53;;;;;;;37.25;18.25;;;;;;;;;;6253677;23;20008;-94
2023/04/21 01:42:36;;;;;;;49.38;16.17;;;;;;;;;;6252281;23;20130;-93
2023/04/21 01:45:02;;;;;;;38.03;16.20;;;;;;;;;;6250629;23;20082;-94
2023/04/21 01:47:35;;;;;;;37.38;17.00;;;;;;;;;;6226636;23;20012;-94
2023/04/21 01:50:02;;;;;;;34.63;16.42;;;;;;;;;;6251675;23;20342;-94
2023/04/21 01:52:29;;;;;;;35.25;16.00;;;;;;;;;;6227964;23;20402;-94
2023/04/21 01:54:58;;;;;;;37.00;18.05;;;;;;;;;;6227025;23;20082;-94
2023/04/21 01:57:25;;;;;;;40.60;16.85;;;;;;;;;;6226888;23;20008;-94
2023/04/21 01:59:57;;;;;;;35.80;17.58;;;;;;;;;;6227081;23;20016;-94
2023/04/21 02:02:24;;;;;;;32.92;15.52;;;;;;;;;;6229214;23;20031;-94
2023/04/21 02:04:50;;;;;;;45.95;17.42;;;;;;;;;;6226278;23;20346;-95
2023/04/21 02:07:32;;;;;;;43.08;16.73;;;;;;;;;;6228319;22;20031;-94
2023/04/21 02:09:58;;;;;;;41.33;17.40;;;;;;;;;;6253190;23;20030;-95
2023/04/21 02:12:24;;;;;;;35.15;16.75;;;;;;;;;;6252229;23;20016;-95
2023/04/21 02:14:50;;;;;;;42.03;18.88;;;;;;;;;;6253313;23;20019;-95
2023/04/21 02:17:16;;;;;;;46.10;16.70;;;;;;;;;;6227297;23;20066;-95
2023/04/21 02:19:46;;;;;;;47.17;17.55;;;;;;;;;;6251216;23;20010;-94
2023/04/21 02:22:21;;;;;;;44.78;16.65;;;;;;;;;;6233285;23;20043;-93
2023/04/21 02:24:55;;;;;;;33.20;17.38;;;;;;;;;;6257574;22;20056;-95
2023/04/21 02:30:11;;;;;;;58.58;17.77;;;;;;;;;;6199570;23;20022;-93
2023/04/21 02:32:38;;;;;;;31.23;15.52;;;;;;;;;;6234316;23;19993;-94
2023/04/21 02:35:04;;;;;;;38.75;16.92;;;;;;;;;;6261018;23;20000;-93
2023/04/21 02:37:30;;;;;;;40.05;16.77;;;;;;;;;;6233195;23;20023;-95
2023/04/21 02:39:57;;;;;;;38.78;17.42;;;;;;;;;;6231935;23;20012;-93
2023/04/21 02:42:23;;;;;;;54.22;18.10;;;;;;;;;;6257769;23;20012;-94
2023/04/21 02:44:49;;;;;;;38.00;16.80;;;;;;;;;;6235700;23;20008;-94
2023/04/21 02:47:18;;;;;;;38.83;17.10;;;;;;;;;;6236439;23;20004;-93
2023/04/21 02:49:44;;;;;;;41.50;18.83;;;;;;;;;;6236884;23;20012;-93
2023/04/21 02:52:11;;;;;;;35.88;15.70;;;;;;;;;;6262457;23;20014;-93
2023/04/21 02:54:55;;;;;;;37.67;15.95;;;;;;;;;;6263261;23;20031;-94
2023/04/21 02:57:21;;;;;;;36.97;16.65;;;;;;;;;;6241006;23;20027;-93
2023/04/21 02:59:48;;;;;;;50.28;17.30;;;;;;;;;;6254832;23;20004;-92
2023/04/21 03:02:17;;;;;;;37.35;17.38;;;;;;;;;;6232491;23;20015;-94
2023/04/21 03:04:43;;;;;;;40.03;17.58;;;;;;;;;;6235089;23;20008;-94
2023/04/21 03:07:13;;;;;;;49.13;19.15;;;;;;;;;;6236982;22;20055;-94
2023/04/21 03:09:44;;;;;;;39.40;16.52;;;;;;;;;;6262750;23;20004;-94
2023/04/21 03:12:12;;;;;;;32.05;16.13;;;;;;;;;;6256794;23;20012;-94
2023/04/21 03:14:39;;;;;;;41.92;17.27;;;;;;;;;;6231581;23;20015;-94
2023/04/21 03:17:20;;;;;;;39.95;18.38;;;;;;;;;;6229503;23;20020;-94
2023/04/21 03:19:55;;;;;;;43.38;18.05;;;;;;;;;;6231459;23;20385;-94
2023/04/21 03:22:21;;;;;;;48.77;18.13;;;;;;;;;;6256169;23;20001;-94
2023/04/21 03:24:48;;;;;;;38.72;15.98;;;;;;;;;;6231516;23;20143;-95
2023/04/21 03:27:30;;;;;;;38.78;16.20;;;;;;;;;;6257566;23;20019;-94
2023/04/21 03:29:56;;;;;;;37.55;16.25;;;;;;;;;;6231516;23;20008;-94
2023/04/21 03:32:41;;;;;;;36.75;16.73;;;;;;;;;;6258196;23;20015;-95
2023/04/21 03:35:08;;;;;;;37.13;16.30;;;;;;;;;;6240319;23;20008;-93
2023/04/21 03:37:35;;;;;;;37.33;14.48;;;;;;;;;;6266270;23;20012;-94
2023/04/21 03:40:01;;;;;;;31.67;13.82;;;;;;;;;;6242115;23;20007;-94
2023/04/21 03:42:28;;;;;;;26.50;13.27;;;;;;;;;;6267277;23;19986;-92
2023/04/21 03:44:55;;;;;;;31.45;15.82;;;;;;;;;;6241760;23;20015;-93
2023/04/21 03:47:21;;;;;;;23.35;10.38;;;;;;;;;;6239248;23;20016;-92
2023/04/21 03:49:48;;;;;;;34.65;14.65;;;;;;;;;;6239387;23;20067;-93
2023/04/21 03:52:14;;;;;;;31.48;13.70;;;;;;;;;;6262340;23;20019;-92
2023/04/21 03:54:54;;;;;;;29.63;14.20;;;;;;;;;;6238360;23;20012;-94
2023/04/21 03:57:20;;;;;;;34.25;14.23;;;;;;;;;;6238357;23;20031;-94
2023/04/21 04:02:32;;;;;;;;;;;;;;;;;;6244043;23;20430;-93
2023/04/21 04:04:59;;;;;;;25.77;12.38;;;;;;;;;;6263532;23;20404;-93
2023/04/21 04:07:25;;;;;;;28.65;13.90;;;;;;;;;;6239579;22;20020;-93
2023/04/21 04:09:51;;;;;;;27.33;11.90;;;;;;;;;;6239779;23;20009;-92
2023/04/21 04:12:27;;;;;;;32.65;11.93;;;;;;;;;;6237051;23;20084;-94
2023/04/21 04:15:00;;;;;;;20.25;10.60;;;;;;;;;;6238306;23;20008;-94
2023/04/21 04:17:39;;;;;;;32.65;13.07;;;;;;;;;;6236989;23;20008;-94
2023/04/21 04:20:18;;;;;;;32.17;13.15;;;;;;;;;;6263983;23;20028;-94
2023/04/21 04:22:45;;;;;;;26.67;12.98;;;;;;;;;;6263006;23;20063;-93
2023/04/21 04:25:17;;;;;;;25.27;11.73;;;;;;;;;;6236541;23;20000;-93
2023/04/21 04:27:44;;;;;;;26.33;12.32;;;;;;;;;;6235965;23;20000;-93
2023/04/21 04:30:12;;;;;;;28.77;12.52;;;;;;;;;;6262666;23;20071;-93
2023/04/21 04:35:30;;;;;;;25.38;12.30;;;;;;;;;;6261260;23;20067;-93
2023/04/21 04:38:03;;;;;;;27.40;13.65;;;;;;;;;;6240910;23;20004;-93
2023/04/21 04:40:32;;;;;;;25.60;12.43;;;;;;;;;;6266927;23;19995;-93
2023/04/21 04:43:07;;;;;;;26.95;11.93;;;;;;;;;;6266822;23;20012;-94
2023/04/21 04:45:33;;;;;;;30.27;11.68;;;;;;;;;;6240067;23;19992;-93
2023/04/21 04:48:00;;;;;;;21.30;10.93;;;;;;;;;;6267416;22;20023;-93
2023/04/21 04:50:26;;;;;;;28.63;12.75;;;;;;;;;;6266915;23;20034;-93
2023/04/21 04:52:52;;;;;;;34.88;12.43;;;;;;;;;;6266568;23;20052;-94
2023/04/21 04:55:19;;;;;;;24.85;11.82;;;;;;;;;;6242600;23;20008;-94
2023/04/21 04:58:24;;;;;;;24.85;11.20;;;;;;;;;;6241571;23;20012;-92
2023/04/21 05:00:53;;;;;;;23.90;10.68;;;;;;;;;;6150446;23;20210;-94
2023/04/21 05:03:20;;;;;;;20.75;8.90;;;;;;;;;;6151137;23;19997;-93
2023/04/21 05:05:46;;;;;;;29.00;12.15;;;;;;;;;;6182112;23;20024;-93
2023/04/21 05:08:22;;;;;;;29.00;11.10;;;;;;;;;;6268283;22;20020;-94
2023/04/21 05:10:50;;;;;;;21.65;9.68;;;;;;;;;;6266554;23;20000;-94
2023/04/21 05:13:17;;;;;;;20.80;10.27;;;;;;;;;;6265961;23;20000;-93
2023/04/21 05:15:43;;;;;;;28.15;11.55;;;;;;;;;;6240782;23;20019;-94
2023/04/21 05:18:23;;;;;;;17.50;9.10;;;;;;;;;;6240483;23;20007;-95
2023/04/21 05:20:50;;;;;;;32.20;11.20;;;;;;;;;;6266690;23;20000;-95
2023/04/21 05:23:16;;;;;;;23.08;10.23;;;;;;;;;;6241788;23;20011;-95
2023/04/21 05:25:51;;;;;;;22.33;10.85;;;;;;;;;;6267119;23;19988;-94
2023/04/21 05:28:41;;;;;;;26.17;10.35;;;;;;;;;;6238212;23;20012;-94
2023/04/21 05:31:28;;;;;;;23.80;10.55;;;;;;;;;;6243716;23;20000;-94
2023/04/21 05:33:58;;;;;;;21.23;9.65;;;;;;;;;;6263165;23;20047;-94
2023/04/21 05:36:26;;;;;;;28.75;9.80;;;;;;;;;;6239770;23;20000;-94
2023/04/21 05:38:56;;;;;;;31.60;10.18;;;;;;;;;;6263812;23;20028;-94
2023/04/21 05:41:25;;;;;;;21.17;8.95;;;;;;;;;;6263391;23;20007;-94
2023/04/21 05:44:10;;;;;;;21.63;9.52;;;;;;;;;;6235759;23;20007;-92
2023/04/21 05:46:40;;;;;;;22.80;10.18;;;;;;;;;;6235824;23;20011;-94
2023/04/21 05:49:07;;;;;;;20.20;9.35;;;;;;;;;;6260323;23;20039;-93
2023/04/21 05:51:33;;;;;;;26.08;9.90;;;;;;;;;;6232297;23;20016;-94
2023/04/21 05:53:59;;;;;;;22.13;9.30;;;;;;;;;;6231558;23;20012;-93
2023/04/21 05:56:25;;;;;;;30.30;11.13;;;;;;;;;;6255703;23;20007;-95
2023/04/21 05:58:52;;;;;;;19.27;9.80;;;;;;;;;;6230973;23;20041;-93
2023/04/21 06:01:18;;;;;;;22.02;11.07;;;;;;;;;;6254045;23;20011;-93
2023/04/21 06:03:47;;;;;;;25.23;9.80;;;;;;;;;;6229747;23;20004;-93
2023/04/21 06:06:14;;;;;;;18.80;9.00;;;;;;;;;;6232306;23;20008;-94
2023/04/21 06:08:47;;;;;;;16.40;7.72;;;;;;;;;;6288071;22;20102;-94
2023/04/21 06:11:13;;;;;;;21.42;9.48;;;;;;;;;;6262223;22;20007;-93
2023/04/21 06:13:39;;;;;;;20.83;9.40;;;;;;;;;;6261973;22;20007;-94
2023/04/21 06:16:07;;;;;;;12.15;7.13;;;;;;;;;;6260982;22;20023;-94
2023/04/21 06:18:33;;;;;;;33.55;10.57;;;;;;;;;;6261151;22;20094;-94
2023/04/21 06:21:00;;;;;;;22.02;9.20;;;;;;;;;;6260096;22;20059;-94
2023/04/21 06:23:37;;;;;;;18.63;9.18;;;;;;;;;;6236403;22;20465;-93
2023/04/21 06:26:08;;;;;;;17.48;8.63;;;;;;;;;;6237726;22;20004;-94
2023/04/21 06:28:35;;;;;;;23.35;9.32;;;;;;;;;;6260787;22;20074;-95
2023/04/21 06:31:02;;;;;;;23.48;8.93;;;;;;;;;;6259131;22;20466;-94
2023/04/21 06:33:34;;;;;;;20.95;7.88;;;;;;;;;;6259419;22;20004;-94
2023/04/21 06:36:00;;;;;;;20.70;7.80;;;;;;;;;;6260927;22;20004;-94
2023/04/21 06:38:30;;;;;;;21.95;9.15;;;;;;;;;;6260906;22;20015;-93
2023/04/21 06:40:56;;;;;;;23.08;8.65;;;;;;;;;;6235081;22;20018;-92
2023/04/21 06:43:22;;;;;;;21.02;7.78;;;;;;;;;;6233123;22;20007;-93
2023/04/21 06:46:06;;;;;;;17.63;9.07;;;;;;;;;;6235092;22;20014;-93
2023/04/21 06:48:33;;;;;;;18.60;8.73;;;;;;;;;;6259068;22;20095;-90
2023/04/21 06:51:00;;;;;;;21.10;7.68;;;;;;;;;;6258573;22;20003;-92
2023/04/21 06:53:26;;;;;;;16.70;9.15;;;;;;;;;;6234353;22;20007;-91
2023/04/21 06:55:55;;;;;;;26.23;9.02;;;;;;;;;;6259262;22;20004;-92
2023/04/21 06:58:23;;;;;;;18.17;8.77;;;;;;;;;;6225235;22;20011;-91
2023/04/21 07:00:53;;;;;;;17.80;8.38;;;;;;;;;;6223732;22;20011;-91
2023/04/21 07:03:19;;;;;;;24.08;10.32;;;;;;;;;;6228053;22;20000;-91
2023/04/21 07:05:48;;;;;;;21.77;9.55;;;;;;;;;;6252696;22;20069;-92
2023/04/21 07:08:18;;;;;;;18.27;8.88;;;;;;;;;;6250599;22;20012;-91
2023/04/21 07:10:47;;;;;;;23.05;8.02;;;;;;;;;;6224019;23;20014;-91
2023/04/21 07:13:14;;;;;;;18.67;9.13;;;;;;;;;;6247263;23;20073;-91
2023/04/21 07:15:44;;;;;;;17.38;8.80;;;;;;;;;;6219137;23;20458;-92
2023/04/21 07:20:58;;;;;;;18.02;8.20;;;;;;;;;;6217426;23;20008;-92
2023/04/21 07:23:25;;;;;;;20.75;8.00;;;;;;;;;;6245917;23;20004;-91
2023/04/21 07:25:51;;;;;;;17.10;8.45;;;;;;;;;;6247763;23;20019;-92
2023/04/21 07:28:17;;;;;;;24.80;8.40;;;;;;;;;;6223246;23;20013;-91
2023/04/21 07:30:43;;;;;;;16.98;8.40;;;;;;;;;;6222511;23;20030;-92
2023/04/21 07:33:10;;;;;;;19.73;9.07;;;;;;;;;;6222640;23;20095;-91
2023/04/21 07:35:36;;;;;;;15.73;7.88;;;;;;;;;;6247111;23;20215;-92
2023/04/21 07:38:02;;;;;;;20.00;8.48;;;;;;;;;;6224349;23;20019;-92
2023/04/21 07:40:32;;;;;;;20.42;6.80;;;;;;;;;;6223219;23;20000;-92
2023/04/21 07:42:58;;;;;;;14.93;7.43;;;;;;;;;;6223209;23;20008;-91
2023/04/21 07:45:24;;;;;;;18.38;9.20;;;;;;;;;;6243970;23;20008;-92
2023/04/21 07:47:52;;;;;;;17.45;8.77;;;;;;;;;;6221802;23;20045;-91
2023/04/21 07:50:18;;;;;;;17.77;8.00;;;;;;;;;;6219380;23;20038;-91
2023/04/21 07:52:44;;;;;;;22.77;8.80;;;;;;;;;;6242950;23;20012;-91
2023/04/21 07:55:12;;;;;;;22.73;8.13;;;;;;;;;;6219804;23;20043;-92
2023/04/21 07:57:39;;;;;;;17.45;8.00;;;;;;;;;;6220822;23;20103;-91
2023/04/21 08:00:05;;;;;;;27.42;8.38;;;;;;;;;;6221402;23;20490;-91
2023/04/21 08:02:31;;;;;;;25.55;8.25;;;;;;;;;;6243152;23;20133;-92
2023/04/21 08:04:57;;;;;;;20.10;7.90;;;;;;;;;;6244958;23;20016;-91
2023/04/21 08:07:24;;;;;;;15.57;7.40;;;;;;;;;;6224813;22;20027;-92
2023/04/21 08:12:39;;;;;;;23.05;7.82;;;;;;;;;;6197708;22;20022;-92
2023/04/21 08:15:07;;;;;;;20.75;7.82;;;;;;;;;;6224254;22;20012;-92
2023/04/21 08:17:33;;;;;;;23.92;9.52;;;;;;;;;;6247384;22;20012;-91
2023/04/21 08:20:00;;;;;;;19.10;7.80;;;;;;;;;;6248781;22;20027;-91
2023/04/21 08:22:26;;;;;;;25.08;8.27;;;;;;;;;;6249425;22;20000;-91
2023/04/21 08:24:52;;;;;;;21.85;8.02;;;;;;;;;;6249806;22;20464;-92
2023/04/21 08:27:21;;;;;;;22.42;7.82;;;;;;;;;;6251057;22;20068;-92
2023/04/21 08:29:47;;;;;;;15.23;8.32;;;;;;;;;;6229418;22;20008;-91
2023/04/21 08:32:13;;;;;;;19.00;7.68;;;;;;;;;;6250423;22;20000;-91
2023/04/21 08:34:44;;;;;;;13.23;7.32;;;;;;;;;;6229229;22;20075;-92
2023/04/21 08:37:15;;;;;;;14.82;7.88;;;;;;;;;;6229256;22;20386;-92
2023/04/21 08:42:31;;;;;;;15.43;7.50;;;;;;;;;;6246215;22;20232;-91
2023/04/21 08:44:57;;;;;;;22.70;8.18;;;;;;;;;;6252344;22;20335;-92
2023/04/21 08:47:26;;;;;;;19.65;8.27;;;;;;;;;;6255533;22;20018;-92
2023/04/21 08:49:56;;;;;;;16.52;7.60;;;;;;;;;;6255550;22;20038;-92
2023/04/21 08:52:28;;;;;;;18.45;7.25;;;;;;;;;;6256632;22;20518;-94
2023/04/21 08:55:00;;;;;;;21.83;7.65;;;;;;;;;;6231449;22;20507;-92
2023/04/21 08:57:47;;;;;;;20.98;8.52;;;;;;;;;;6232183;22;20434;-92
2023/04/21 09:00:16;;;;;;;16.40;7.53;;;;;;;;;;6261005;22;20014;-92
2023/04/21 09:03:28;;;;;;;18.73;8.25;;;;;;;;;;6255896;22;20003;-92
2023/04/21 09:06:05;;;;;;;18.45;8.07;;;;;;;;;;6106626;23;20010;-93
2023/04/21 09:08:38;;;;;;;16.83;7.82;;;;;;;;;;6133166;23;20041;-92
2023/04/21 09:11:18;;;;;;;19.92;8.13;;;;;;;;;;6161820;23;20008;-93
2023/04/21 09:14:14;;;;;;;23.75;8.45;;;;;;;;;;6225147;23;20008;-93
2023/04/21 09:16:36;;;;;;;18.27;7.38;;;;;;;;;;6242987;23;20019;-93
2023/04/21 09:19:17;;;;;;;21.38;7.40;;;;;;;;;;6228703;23;20004;-93
2023/04/21 09:24:30;;;;;;;12.80;7.35;;;;;;;;;;6255017;23;20023;-92
2023/04/21 09:27:02;;;;;;;20.35;7.32;;;;;;;;;;6228671;23;20012;-91
2023/04/21 09:32:23;;;;;;;16.25;7.82;;;;;;;;;;6196724;23;20042;-93
2023/04/21 09:34:51;;;;;;;21.52;7.82;;;;;;;;;;6161761;23;20014;-93
2023/04/21 09:37:23;;;;;;;18.55;8.45;;;;;;;;;;6139404;23;20017;-93
2023/04/21 09:39:52;;;;;;;21.80;7.47;;;;;;;;;;6141588;23;20114;-93
2023/04/21 09:42:35;;;;;;;22.45;7.43;;;;;;;;;;6141714;23;20005;-92
2023/04/21 09:45:16;;;;;;;15.35;7.50;;;;;;;;;;6140203;23;20017;-93
2023/04/21 09:47:55;;;;;;;12.07;7.30;;;;;;;;;;6139274;23;20016;-93
2023/04/21 09:50:26;;;;;;;13.55;7.93;;;;;;;;;;6122354;23;20018;-93
2023/04/21 09:53:07;;;;;;;20.20;7.40;;;;;;;;;;6137886;23;20018;-93
2023/04/21 09:55:36;;;;;;;19.85;7.50;;;;;;;;;;6139434;23;20016;-93
2023/04/21 09:58:14;;;;;;;19.95;6.75;;;;;;;;;;6139274;23;20009;-93
2023/04/21 10:00:40;;;;;;;14.00;7.00;;;;;;;;;;6140324;23;20128;-92
2023/04/21 10:03:10;;;;;;;20.30;8.23;;;;;;;;;;6137670;23;20056;-92
2023/04/21 10:05:53;;;;;;;19.95;7.50;;;;;;;;;;6164644;23;20006;-93
2023/04/21 10:08:25;;;;;;;18.05;7.13;;;;;;;;;;6145952;23;20016;-93
2023/04/21 10:13:44;;;;;;;27.77;7.43;;;;;;;;;;6212488;22;20420;-94
2023/04/21 10:16:25;;;;;;;13.77;7.30;;;;;;;;;;6256251;23;20019;-94
2023/04/21 10:22:02;;;;;;;23.25;7.90;;;;;;;;;;6261992;23;20100;-93
2023/04/21 10:27:33;;;;;;;13.88;7.10;;;;;;;;;;6196173;23;20044;-93
2023/04/21 10:30:00;;;;;;;15.50;7.70;;;;;;;;;;6234729;23;20015;-93
2023/04/21 10:32:51;;;;;;;16.20;7.22;;;;;;;;;;6231547;23;20035;-95
2023/04/21 10:35:24;;;;;;;22.02;6.50;;;;;;;;;;6258801;23;20085;-93
2023/04/21 10:40:44;;;;;;;20.08;7.10;;;;;;;;;;6257937;23;20015;-94
2023/04/21 10:43:33;;;;;;;17.60;7.65;;;;;;;;;;6257357;23;20420;-93
2023/04/21 10:46:22;;;;;;;20.70;7.95;;;;;;;;;;6255160;23;20012;-92
2023/04/21 10:49:07;;;;;;;18.10;7.10;;;;;;;;;;6254651;23;20046;-94
2023/04/21 10:51:55;;;;;;;20.10;7.10;;;;;;;;;;6261261;23;19984;-93
2023/04/21 10:54:41;;;;;;;;;;;;;;;;;;;;;
2023/04/21 10:57:13;;;;;;;17.30;6.80;;;;;;;;;;6257667;23;20031;-94
2023/04/21 10:59:46;;;;;;;12.23;5.80;;;;;;;;;;6255880;23;20478;-94
2023/04/21 11:02:39;;;;;;;8.60;5.90;;;;;;;;;;6257313;23;20005;-94
2023/04/21 11:05:09;;;;;;;20.38;7.35;;;;;;;;;;6234482;23;20481;-94
2023/04/21 11:07:38;;;;;;;10.02;5.63;;;;;;;;;;6256997;23;20008;-93
2023/04/21 11:10:05;;;;;;;18.65;6.13;;;;;;;;;;6230492;22;20358;-94
2023/04/21 11:12:38;;;;;;;12.88;5.93;;;;;;;;;;6256704;23;20012;-94
2023/04/21 11:15:50;;;;;;;12.70;5.55;;;;;;;;;;6233680;23;20016;-95
2023/04/21 11:20:46;;;;;;;15.82;5.47;;;;;;;;;;6256673;23;20064;-94
2023/04/21 11:23:20;;;;;;;10.18;6.22;;;;;;;;;;6255904;22;20008;-93
2023/04/21 11:25:59;;;;;;;19.05;5.78;;;;;;;;;;6254964;23;20011;-94
2023/04/21 11:28:31;;;;;;;10.20;5.35;;;;;;;;;;6235512;23;20012;-94
2023/04/21 11:31:07;;;;;;;12.45;6.85;;;;;;;;;;6234010;23;20008;-93
2023/04/21 11:33:41;;;;;;;14.27;5.53;;;;;;;;;;6256103;23;20321;-94
2023/04/21 11:36:10;;;;;;;12.85;5.38;;;;;;;;;;6253529;23;20026;-94
2023/04/21 11:38:44;;;;;;;19.92;5.43;;;;;;;;;;6256769;23;20000;-93
2023/04/21 11:41:10;;;;;;;18.00;5.78;;;;;;;;;;6254316;23;20478;-95
2023/04/21 11:46:36;;;;;;;10.57;5.20;;;;;;;;;;6237276;23;20074;-93
2023/04/21 11:49:20;;;;;;;11.13;6.80;;;;;;;;;;6229703;23;20091;-93
2023/04/21 11:51:59;;;;;;;24.55;5.65;;;;;;;;;;6257102;23;20043;-94
2023/04/21 11:54:25;;;;;;;15.60;5.53;;;;;;;;;;6230462;23;20016;-94
2023/04/21 11:56:54;;;;;;;13.25;5.68;;;;;;;;;;6255961;22;20020;-94
2023/04/21 11:59:25;;;;;;;17.80;4.88;;;;;;;;;;6258163;23;20007;-95
2023/04/21 12:01:57;;;;;;;11.82;6.10;;;;;;;;;;6255928;23;20004;-95
2023/04/21 12:04:26;;;;;;;12.15;5.03;;;;;;;;;;6257452;23;20056;-94
2023/04/21 12:07:02;;;;;;;13.93;5.47;;;;;;;;;;6254273;23;20020;-95
2023/04/21 12:09:29;;;;;;;18.05;6.13;;;;;;;;;;6254415;22;20011;-94
2023/04/21 12:12:27;;;;;;;10.20;5.50;;;;;;;;;;6227273;23;20027;-94
2023/04/21 12:15:17;;;;;;;34.75;6.45;;;;;;;;;;6255876;23;20104;-94
2023/04/21 12:17:49;;;;;;;12.77;6.07;;;;;;;;;;6256527;23;20020;-95
2023/04/21 12:20:24;;;;;;;16.33;5.90;;;;;;;;;;6258995;22;20004;-95
2023/04/21 12:23:11;;;;;;;14.15;6.20;;;;;;;;;;6227487;23;20083;-94
2023/04/21 12:25:43;;;;;;;12.82;5.38;;;;;;;;;;6234793;23;20016;-95
2023/04/21 12:28:10;;;;;;;15.15;6.10;;;;;;;;;;6256823;22;20012;-94
2023/04/21 12:30:36;;;;;;;18.27;6.15;;;;;;;;;;6260076;23;20015;-94
2023/04/21 12:33:03;;;;;;;15.65;5.60;;;;;;;;;;6263325;23;20000;-96
2023/04/21 12:35:32;;;;;;;22.95;5.88;;;;;;;;;;6233194;23;20012;-95
2023/04/21 12:37:58;;;;;;;12.52;5.05;;;;;;;;;;6253770;23;20048;-94
2023/04/21 12:40:24;;;;;;;25.30;5.72;;;;;;;;;;6227045;23;20091;-94
2023/04/21 12:42:59;;;;;;;11.38;5.43;;;;;;;;;;6229735;23;20442;-94
2023/04/21 12:45:30;;;;;;;11.38;5.40;;;;;;;;;;6249314;23;20099;-94
2023/04/21 12:50:41;;;;;;;14.05;4.88;;;;;;;;;;6250862;23;20029;-95
2023/04/21 12:53:07;;;;;;;9.98;5.82;;;;;;;;;;6225833;23;20012;-95
2023/04/21 12:55:35;;;;;;;18.33;5.60;;;;;;;;;;6225996;23;20016;-95
2023/04/21 12:58:01;;;;;;;18.05;5.40;;;;;;;;;;6225401;23;20686;-95
2023/04/21 13:00:27;;;;;;;13.15;5.45;;;;;;;;;;6249070;23;20437;-94
2023/04/21 13:02:54;;;;;;;11.48;4.85;;;;;;;;;;6251611;23;20027;-94
2023/04/21 13:05:33;;;;;;;13.40;4.40;;;;;;;;;;6221873;23;20018;-94
2023/04/21 13:08:02;;;;;;;23.20;4.78;;;;;;;;;;6248745;23;20004;-94
2023/04/21 13:10:37;;;;;;;14.75;4.13;;;;;;;;;;6248649;22;20027;-95
2023/04/21 13:13:03;;;;;;;10.27;3.80;;;;;;;;;;6224226;23;20012;-94
2023/04/21 13:15:38;;;;;;;7.75;3.60;;;;;;;;;;6222510;23;20072;-94
2023/04/21 13:18:30;;;;;;;12.02;4.03;;;;;;;;;;6225686;23;20016;-93
2023/04/21 13:21:01;;;;;;;12.35;3.90;;;;;;;;;;6237245;23;20026;-93
2023/04/21 13:23:27;;;;;;;11.65;3.90;;;;;;;;;;6220499;23;20015;-92
2023/04/21 13:25:53;;;;;;;10.65;4.38;;;;;;;;;;6247555;23;20006;-92
2023/04/21 13:28:20;;;;;;;12.90;4.47;;;;;;;;;;6246171;23;20082;-96
2023/04/21 13:30:46;;;;;;;9.98;4.38;;;;;;;;;;6245641;23;20419;-93
2023/04/21 13:33:15;;;;;;;13.25;4.00;;;;;;;;;;6221428;23;20012;-93
2023/04/21 13:35:42;;;;;;;8.10;3.40;;;;;;;;;;6222312;23;20012;-94
2023/04/21 13:38:15;;;;;;;9.73;4.57;;;;;;;;;;6248331;23;20015;-95
2023/04/21 13:40:45;;;;;;;9.63;4.32;;;;;;;;;;6248341;23;20038;-94
2023/04/21 13:43:22;;;;;;;6.50;3.78;;;;;;;;;;6249370;23;20008;-92
2023/04/21 13:45:53;;;;;;;20.88;4.20;;;;;;;;;;6248151;23;20024;-93
2023/04/21 13:48:22;;;;;;;6.65;3.15;;;;;;;;;;6247360;23;20012;-93
2023/04/21 13:50:57;;;;;;;11.23;3.72;;;;;;;;;;6224395;23;20039;-93
2023/04/21 13:53:25;;;;;;;19.40;3.40;;;;;;;;;;6222507;23;20490;-93
2023/04/21 13:55:58;;;;;;;20.65;4.03;;;;;;;;;;6224981;23;20468;-95
2023/04/21 13:58:29;;;;;;;10.02;3.58;;;;;;;;;;6222021;23;20022;-95
2023/04/21 14:01:02;;;;;;;10.77;4.13;;;;;;;;;;6249290;23;20034;-95
2023/04/21 14:03:30;;;;;;;18.42;4.22;;;;;;;;;;6250267;23;19985;-95
2023/04/21 14:05:59;;;;;;;13.70;3.97;;;;;;;;;;6249080;23;20004;-95
2023/04/21 14:08:25;;;;;;;8.98;2.88;;;;;;;;;;6249417;23;20000;-95
2023/04/21 14:10:51;;;;;;;7.82;3.42;;;;;;;;;;6222372;22;20097;-93
2023/04/21 14:13:18;;;;;;;17.85;4.13;;;;;;;;;;6221122;23;20022;-94
2023/04/21 14:15:54;;;;;;;7.28;3.60;;;;;;;;;;6220034;23;20461;-96
2023/04/21 14:18:22;;;;;;;12.40;3.95;;;;;;;;;;6225753;23;20027;-96
2023/04/21 14:23:34;;;;;;;12.02;3.72;;;;;;;;;;6248988;23;20027;-95
2023/04/21 14:26:00;;;;;;;9.27;4.40;;;;;;;;;;6221851;23;20019;-95
2023/04/21 14:28:30;;;;;;;11.13;3.50;;;;;;;;;;6224749;23;20013;-93
2023/04/21 14:31:09;;;;;;;8.50;3.67;;;;;;;;;;6221415;23;20012;-93
2023/04/21 14:33:49;;;;;;;13.80;3.47;;;;;;;;;;6224413;23;20019;-96
2023/04/21 14:36:18;;;;;;;9.85;3.70;;;;;;;;;;6226079;23;20348;-95
2023/04/21 14:38:48;;;;;;;6.65;3.80;;;;;;;;;;6249612;23;20229;-94
2023/04/21 14:41:19;;;;;;;8.73;3.75;;;;;;;;;;6247216;23;20020;-95
2023/04/21 14:43:52;;;;;;;15.38;3.88;;;;;;;;;;6219637;23;20059;-95
2023/04/21 14:46:21;;;;;;;12.77;3.63;;;;;;;;;;6223939;23;20085;-95
2023/04/21 14:48:48;;;;;;;5.22;3.35;;;;;;;;;;6246089;23;20009;-94
2023/04/21 14:51:20;;;;;;;7.20;3.67;;;;;;;;;;6221715;23;20008;-94
2023/04/21 14:53:53;;;;;;;16.45;4.07;;;;;;;;;;6247888;23;20007;-96
2023/04/21 14:56:19;;;;;;;8.68;3.70;;;;;;;;;;6246832;23;20020;-93
2023/04/21 14:58:45;;;;;;;10.95;3.60;;;;;;;;;;6219345;23;20434;-95
2023/04/21 15:01:32;;;;;;;14.32;3.63;;;;;;;;;;6226360;23;20008;-95
2023/04/21 15:04:24;;;;;;;10.70;3.88;;;;;;;;;;6238138;23;20012;-95
2023/04/21 15:06:50;;;;;;;8.82;3.88;;;;;;;;;;6229009;23;20012;-95
2023/04/21 15:09:24;;;;;;;11.43;3.38;;;;;;;;;;6252750;22;20016;-94
2023/04/21 15:11:56;;;;;;;9.85;4.63;;;;;;;;;;6254525;22;20023;-95
2023/04/21 15:14:22;;;;;;;8.95;4.25;;;;;;;;;;6227948;22;20016;-95
2023/04/21 15:16:49;;;;;;;27.23;4.32;;;;;;;;;;6250525;22;20008;-94
2023/04/21 15:19:15;;;;;;;10.82;3.97;;;;;;;;;;6253512;22;20007;-94
2023/04/21 15:21:48;;;;;;;24.92;4.20;;;;;;;;;;6253755;22;20014;-95
2023/04/21 15:24:19;;;;;;;12.07;4.32;;;;;;;;;;6231237;22;20012;-93
2023/04/21 15:26:49;;;;;;;14.10;3.90;;;;;;;;;;6230300;22;20042;-95
2023/04/21 15:29:40;;;;;;;14.35;4.30;;;;;;;;;;6229971;22;20478;-95
2023/04/21 15:32:28;;;;;;;11.75;4.25;;;;;;;;;;6255109;22;20087;-94
2023/04/21 15:34:57;;;;;;;9.75;4.75;;;;;;;;;;6263315;22;20023;-94
2023/04/21 15:37:44;;;;;;;7.47;4.22;;;;;;;;;;6240735;22;20000;-94